createdAt,value
2022-08-17T00:02:25.359Z,68.27
2022-08-17T00:04:56.216Z,68.54
2022-08-17T00:07:24.244Z,68.82
2022-08-17T00:09:52.818Z,68.88
2022-08-17T00:12:43.210Z,69.88
2022-08-17T00:15:08.278Z,70.18
2022-08-17T00:17:37.929Z,70.08
2022-08-17T00:20:04.868Z,70.41
2022-08-17T00:22:36.071Z,70.44
2022-08-17T00:25:15.147Z,70.41
2022-08-17T00:27:41.927Z,70.89
2022-08-17T00:30:11.606Z,71.10
2022-08-17T00:33:13.958Z,71.04
2022-08-17T00:35:35.594Z,70.93
2022-08-17T00:38:04.081Z,71.54
2022-08-17T00:40:40.685Z,71.65
2022-08-17T00:43:22.169Z,71.83
2022-08-17T00:45:49.548Z,71.52
2022-08-17T00:48:29.945Z,71.60
2022-08-17T00:51:04.764Z,71.60
2022-08-17T00:53:33.882Z,71.50
2022-08-17T00:56:03.039Z,71.09
2022-08-17T00:58:36.340Z,71.08
2022-08-17T01:01:07.467Z,70.69
2022-08-17T01:03:37.340Z,70.91
2022-08-17T01:06:06.611Z,70.92
2022-08-17T01:08:33.374Z,70.72
2022-08-17T01:11:02.415Z,71.14
2022-08-17T01:13:40.385Z,71.37
2022-08-17T01:16:17.824Z,71.47
2022-08-17T01:18:47.860Z,71.42
2022-08-17T01:21:39.267Z,71.60
2022-08-17T01:24:06.206Z,71.16
2022-08-17T01:26:34.436Z,70.96
2022-08-17T01:29:02.863Z,70.74
2022-08-17T01:31:34.806Z,70.71
2022-08-17T01:34:07.307Z,70.40
2022-08-17T01:36:33.797Z,70.57
2022-08-17T01:39:00.660Z,70.12
2022-08-17T01:41:28.185Z,70.30
2022-08-17T01:44:00.071Z,70.34
2022-08-17T01:46:33.331Z,69.72
2022-08-17T01:49:00.710Z,69.64
2022-08-17T01:51:32.535Z,69.67
2022-08-17T01:54:05.186Z,69.44
2022-08-17T01:56:33.867Z,69.66
2022-08-17T01:59:00.595Z,69.30
2022-08-17T02:01:31.115Z,69.35
2022-08-17T02:04:00.565Z,69.23
2022-08-17T02:06:31.401Z,69.20
2022-08-17T02:09:16.483Z,70.00
2022-08-17T02:11:45.315Z,71.03
2022-08-17T02:14:13.100Z,71.51
2022-08-17T02:16:40.961Z,72.38
2022-08-17T02:19:11.353Z,73.50
2022-08-17T02:21:39.105Z,73.70
2022-08-17T02:24:09.684Z,74.49
2022-08-17T02:26:39.466Z,74.66
2022-08-17T02:29:05.978Z,74.74
2022-08-17T02:31:32.807Z,74.79
2022-08-17T02:34:03.952Z,75.93
2022-08-17T02:36:34.071Z,76.99
2022-08-17T02:39:15.529Z,77.38
2022-08-17T02:41:41.939Z,77.67
2022-08-17T02:44:08.795Z,78.05
2022-08-17T02:46:39.290Z,78.66
2022-08-17T02:49:07.115Z,79.29
2022-08-17T02:51:35.178Z,78.86
2022-08-17T02:54:39.086Z,79.49
2022-08-17T02:56:48.356Z,79.57
2022-08-17T02:59:15.019Z,80.19
2022-08-17T03:01:42.104Z,80.49
2022-08-17T03:04:09.292Z,80.45
2022-08-17T03:06:35.830Z,80.61
2022-08-17T03:09:02.326Z,80.68
2022-08-17T03:11:28.721Z,80.83
2022-08-17T03:13:55.692Z,81.17
2022-08-17T03:16:22.060Z,80.94
2022-08-17T03:18:48.525Z,81.08
2022-08-17T03:21:14.903Z,80.55
2022-08-17T03:23:44.292Z,80.50
2022-08-17T03:26:12.383Z,80.75
2022-08-17T03:28:41.879Z,80.78
2022-08-17T03:31:08.513Z,81.11
2022-08-17T03:33:34.962Z,80.98
2022-08-17T03:36:01.553Z,81.01
2022-08-17T03:38:28.139Z,80.99
2022-08-17T03:40:56.290Z,81.00
2022-08-17T03:43:25.236Z,81.08
2022-08-17T03:46:10.824Z,80.86
2022-08-17T03:49:12.891Z,81.23
2022-08-17T03:52:02.750Z,81.34
2022-08-17T03:54:47.495Z,81.64
2022-08-17T03:57:14.266Z,81.75
2022-08-17T03:59:41.220Z,81.56
2022-08-17T04:02:11.436Z,81.49
2022-08-17T04:04:46.335Z,81.54
2022-08-17T04:07:12.767Z,81.73
2022-08-17T04:09:39.222Z,81.71
2022-08-17T04:12:10.256Z,82.24
2022-08-17T04:14:51.499Z,82.04
2022-08-17T04:17:46.919Z,82.74
2022-08-17T04:20:15.655Z,82.83
2022-08-17T04:23:09.407Z,82.74
2022-08-17T04:25:39.402Z,82.73
2022-08-17T04:28:09.445Z,82.97
2022-08-17T04:30:44.987Z,82.96
2022-08-17T04:33:20.891Z,82.79
2022-08-17T04:35:50.063Z,83.06
2022-08-17T04:38:18.871Z,83.00
2022-08-17T04:41:04.420Z,82.80
2022-08-17T04:43:33.108Z,82.86
2022-08-17T04:46:06.430Z,83.00
2022-08-17T04:48:37.644Z,82.81
2022-08-17T04:51:07.746Z,82.87
2022-08-17T04:53:34.354Z,82.79
2022-08-17T04:56:01.067Z,82.50
2022-08-17T05:00:55.297Z,82.66
2022-08-17T05:03:21.757Z,82.56
2022-08-17T05:05:51.299Z,82.43
2022-08-17T05:08:19.438Z,82.51
2022-08-17T05:10:46.872Z,82.40
2022-08-17T05:13:19.729Z,81.89
2022-08-17T05:15:48.166Z,81.64
2022-08-17T05:18:18.192Z,81.66
2022-08-17T05:20:45.076Z,81.61
2022-08-17T05:23:14.969Z,81.70
2022-08-17T05:25:47.578Z,81.40
2022-08-17T05:28:16.177Z,81.50
2022-08-17T05:30:44.122Z,81.62
2022-08-17T05:33:16.534Z,81.75
2022-08-17T05:35:49.045Z,81.72
2022-08-17T05:38:18.908Z,81.59
2022-08-17T05:40:47.007Z,81.80
2022-08-17T05:43:17.290Z,81.95
2022-08-17T05:45:56.479Z,82.28
2022-08-17T05:48:35.281Z,82.12
2022-08-17T05:51:11.597Z,82.56
2022-08-17T05:53:57.838Z,82.39
2022-08-17T05:56:42.391Z,82.71
2022-08-17T05:59:35.751Z,82.46
2022-08-17T06:02:06.391Z,82.74
2022-08-17T06:05:03.747Z,82.81
2022-08-17T06:07:52.733Z,82.75
2022-08-17T06:10:43.948Z,83.06
2022-08-17T06:13:33.041Z,82.98
2022-08-17T06:16:33.891Z,82.85
2022-08-17T06:19:22.975Z,83.01
2022-08-17T06:21:53.915Z,82.79
2022-08-17T06:24:38.347Z,82.85
2022-08-17T06:27:11.998Z,82.15
2022-08-17T06:30:12.712Z,81.62
2022-08-17T06:32:43.193Z,81.89
2022-08-17T06:35:14.726Z,81.63
2022-08-17T06:37:41.027Z,81.22
2022-08-17T06:40:37.536Z,81.74
2022-08-17T06:43:26.528Z,81.68
2022-08-17T06:46:08.314Z,81.63
2022-08-17T06:48:43.835Z,81.40
2022-08-17T06:51:20.970Z,81.58
2022-08-17T06:54:16.397Z,81.82
2022-08-17T06:56:56.109Z,81.39
2022-08-17T06:59:55.373Z,81.19
2022-08-17T07:03:02.682Z,80.99
2022-08-17T07:06:02.250Z,80.94
2022-08-17T07:08:51.211Z,80.95
2022-08-17T07:11:25.889Z,80.56
2022-08-17T07:14:18.899Z,79.60
2022-08-17T07:16:52.248Z,79.81
2022-08-17T07:19:23.338Z,80.23
2022-08-17T07:22:27.944Z,79.68
2022-08-17T07:25:04.370Z,79.85
2022-08-17T07:27:37.034Z,79.81
2022-08-17T07:30:10.910Z,79.89
2022-08-17T07:33:00.611Z,80.05
2022-08-17T07:35:37.863Z,79.88
2022-08-17T07:38:25.349Z,79.86
2022-08-17T07:41:02.498Z,79.85
2022-08-17T07:43:39.163Z,79.91
2022-08-17T07:46:39.527Z,80.00
2022-08-17T07:49:08.598Z,80.09
2022-08-17T07:51:37.237Z,80.43
2022-08-17T07:54:15.623Z,80.54
2022-08-17T07:56:47.088Z,80.47
2022-08-17T07:59:24.061Z,80.58
2022-08-17T08:01:57.529Z,80.56
2022-08-17T08:05:00.210Z,80.84
2022-08-17T08:07:20.789Z,80.90
2022-08-17T08:09:59.958Z,81.82
2022-08-17T08:12:34.979Z,82.07
2022-08-17T08:15:09.388Z,82.32
2022-08-17T08:17:47.441Z,82.85
2022-08-17T08:20:52.496Z,82.76
2022-08-17T08:23:15.426Z,83.34
2022-08-17T08:26:03.126Z,83.40
2022-08-17T08:28:35.694Z,83.23
2022-08-17T08:31:24.383Z,83.39
2022-08-17T08:34:09.074Z,83.18
2022-08-17T08:37:24.999Z,83.50
2022-08-17T08:40:18.986Z,82.99
2022-08-17T08:43:05.854Z,82.61
2022-08-17T08:45:50.929Z,82.67
2022-08-17T08:48:53.899Z,82.36
2022-08-17T08:51:46.101Z,81.26
2022-08-17T08:54:31.334Z,80.27
2022-08-17T09:00:22.502Z,80.27
2022-08-17T09:03:08.395Z,79.47
2022-08-17T09:05:56.153Z,78.55
2022-08-17T09:08:23.259Z,77.67
2022-08-17T09:11:13.471Z,77.28
2022-08-17T09:14:21.281Z,77.50
2022-08-17T09:17:07.824Z,77.37
2022-08-17T09:19:42.033Z,77.20
2022-08-17T09:22:38.429Z,76.45
2022-08-17T09:25:16.591Z,76.40
2022-08-17T09:27:50.587Z,76.13
2022-08-17T09:30:18.486Z,75.84
2022-08-17T09:32:56.107Z,74.81
2022-08-17T09:35:39.450Z,74.55
2022-08-17T09:38:22.424Z,74.90
2022-08-17T09:41:01.600Z,74.63
2022-08-17T09:43:39.027Z,73.57
2022-08-17T09:46:15.896Z,72.96
2022-08-17T09:48:51.600Z,72.09
2022-08-17T09:51:20.663Z,72.89
2022-08-17T09:53:47.291Z,72.88
2022-08-17T09:56:46.974Z,72.74
2022-08-17T09:59:17.119Z,73.46
2022-08-17T10:01:51.608Z,74.70
2022-08-17T10:04:41.348Z,75.60
2022-08-17T10:07:10.783Z,76.22
2022-08-17T10:09:48.648Z,76.77
2022-08-17T10:12:30.874Z,77.13
2022-08-17T10:15:18.964Z,78.07
2022-08-17T10:18:01.125Z,78.19
2022-08-17T10:20:45.658Z,79.00
2022-08-17T10:23:45.013Z,79.52
2022-08-17T10:26:16.822Z,79.59
2022-08-17T10:28:52.675Z,80.18
2022-08-17T10:31:38.778Z,79.98
2022-08-17T10:34:12.375Z,80.44
2022-08-17T10:36:46.217Z,79.99
2022-08-17T10:39:52.106Z,79.86
2022-08-17T10:42:47.039Z,80.27
2022-08-17T10:45:26.070Z,79.94
2022-08-17T10:48:04.816Z,80.02
2022-08-17T10:51:02.059Z,79.21
2022-08-17T10:53:31.137Z,78.66
2022-08-17T10:56:17.400Z,78.05
2022-08-17T10:59:01.133Z,76.61
2022-08-17T11:01:43.414Z,76.63
2022-08-17T11:04:18.676Z,76.45
2022-08-17T11:07:02.043Z,76.36
2022-08-17T11:10:01.054Z,75.97
2022-08-17T11:12:44.215Z,75.95
2022-08-17T11:15:41.423Z,75.71
2022-08-17T11:18:39.860Z,76.30
2022-08-17T11:21:23.058Z,75.44
2022-08-17T11:24:11.631Z,75.56
2022-08-17T11:26:42.153Z,74.86
2022-08-17T11:29:31.050Z,74.72
2022-08-17T11:31:59.475Z,74.80
2022-08-17T11:34:29.957Z,74.33
2022-08-17T11:37:20.711Z,75.33
2022-08-17T11:40:05.779Z,74.40
2022-08-17T11:43:09.917Z,74.17
2022-08-17T11:45:58.125Z,74.99
2022-08-17T11:49:05.000Z,74.67
2022-08-17T11:51:57.023Z,75.03
2022-08-17T11:54:48.177Z,75.18
2022-08-17T11:57:29.708Z,75.70
2022-08-17T12:00:00.713Z,75.56
2022-08-17T12:02:31.668Z,75.82
2022-08-17T12:05:12.313Z,75.70
2022-08-17T12:08:15.921Z,76.24
2022-08-17T12:10:55.996Z,77.22
2022-08-17T12:13:30.574Z,77.66
2022-08-17T12:16:05.492Z,77.52
2022-08-17T12:18:37.327Z,77.59
2022-08-17T12:21:08.499Z,78.15
2022-08-17T12:23:56.776Z,78.27
2022-08-17T12:26:30.184Z,78.60
2022-08-17T12:29:38.432Z,78.76
2022-08-17T12:32:06.940Z,79.20
2022-08-17T12:34:38.162Z,79.80
2022-08-17T12:37:08.097Z,79.93
2022-08-17T12:39:36.684Z,80.12
2022-08-17T12:42:04.616Z,80.70
2022-08-17T12:44:46.141Z,80.70
2022-08-17T12:47:22.690Z,81.00
2022-08-17T12:49:52.593Z,81.41
2022-08-17T12:52:26.768Z,81.38
2022-08-17T12:54:59.599Z,81.70
2022-08-17T12:57:38.282Z,81.71
2022-08-17T13:00:24.733Z,82.24
2022-08-17T13:03:03.261Z,81.94
2022-08-17T13:05:31.344Z,82.46
2022-08-17T13:07:59.810Z,82.30
2022-08-17T13:10:32.872Z,82.17
2022-08-17T13:13:05.196Z,82.15
2022-08-17T13:15:50.776Z,82.51
2022-08-17T13:18:47.239Z,82.01
2022-08-17T13:21:26.578Z,82.41
2022-08-17T13:24:02.732Z,82.18
2022-08-17T13:26:31.228Z,81.96
2022-08-17T13:28:58.590Z,82.43
2022-08-17T13:31:32.912Z,82.32
2022-08-17T13:34:30.624Z,82.24
2022-08-17T13:37:26.277Z,82.32
2022-08-17T13:39:55.410Z,82.63
2022-08-17T13:42:52.886Z,82.88
2022-08-17T13:45:36.514Z,82.82
2022-08-17T13:48:18.782Z,82.91
2022-08-17T13:50:54.157Z,82.67
2022-08-17T13:53:25.485Z,82.67
2022-08-17T13:55:55.388Z,82.75
2022-08-17T13:58:34.181Z,82.94
2022-08-17T14:01:28.614Z,82.93
2022-08-17T14:03:56.187Z,83.06
2022-08-17T14:06:52.478Z,83.50
2022-08-17T14:09:11.290Z,83.04
2022-08-17T14:11:38.261Z,83.62
2022-08-17T14:14:04.897Z,83.26
2022-08-17T14:16:31.335Z,83.31
2022-08-17T14:18:57.800Z,83.21
2022-08-17T14:21:24.282Z,83.33
2022-08-17T14:23:54.810Z,83.72
2022-08-17T14:26:21.563Z,83.48
2022-08-17T14:28:56.600Z,83.94
2022-08-17T14:31:23.650Z,83.60
2022-08-17T14:33:50.039Z,83.93
2022-08-17T14:36:16.430Z,84.00
2022-08-17T14:38:44.938Z,83.88
2022-08-17T14:41:11.582Z,84.29
2022-08-17T14:43:39.581Z,84.37
2022-08-17T14:46:06.111Z,84.27
2022-08-17T14:48:38.476Z,84.38
2022-08-17T14:51:05.293Z,84.58
2022-08-17T14:53:31.733Z,84.18
2022-08-17T14:55:58.111Z,84.16
2022-08-17T14:58:24.639Z,84.01
2022-08-17T15:00:51.308Z,83.99
2022-08-17T15:03:18.719Z,83.98
2022-08-17T15:05:46.746Z,83.54
2022-08-17T15:08:13.296Z,83.52
2022-08-17T15:10:39.728Z,83.47
2022-08-17T15:13:20.438Z,83.75
2022-08-17T15:15:47.983Z,83.56
2022-08-17T15:18:14.823Z,83.38
2022-08-17T15:20:42.851Z,83.88
2022-08-17T15:23:13.091Z,83.47
2022-08-17T15:25:39.585Z,82.84
2022-08-17T15:28:07.306Z,83.26
2022-08-17T15:30:34.722Z,83.32
2022-08-17T15:33:02.025Z,82.89
2022-08-17T15:35:32.882Z,82.55
2022-08-17T15:38:10.690Z,82.65
2022-08-17T15:40:43.008Z,82.64
2022-08-17T15:43:16.917Z,82.63
2022-08-17T15:45:44.553Z,81.64
2022-08-17T15:48:40.541Z,81.59
2022-08-17T15:51:15.896Z,81.73
2022-08-17T15:53:45.301Z,81.62
2022-08-17T15:56:14.074Z,81.71
2022-08-17T15:58:42.382Z,81.13
2022-08-17T16:01:16.772Z,81.44
2022-08-17T16:04:04.358Z,81.64
2022-08-17T16:06:33.372Z,81.46
2022-08-17T16:09:00.348Z,82.16
2022-08-17T16:11:26.796Z,82.01
2022-08-17T16:13:55.063Z,81.83
2022-08-17T16:16:23.558Z,81.99
2022-08-17T16:18:53.584Z,81.70
2022-08-17T16:21:43.096Z,81.40
2022-08-17T16:24:13.388Z,81.27
2022-08-17T16:26:40.609Z,81.18
2022-08-17T16:29:08.221Z,81.57
2022-08-17T16:31:40.079Z,81.23
2022-08-17T16:34:17.945Z,81.25
2022-08-17T16:36:55.636Z,81.55
2022-08-17T16:39:28.683Z,81.51
2022-08-17T16:41:56.232Z,81.48
2022-08-17T16:44:28.831Z,81.44
2022-08-17T16:46:55.901Z,80.92
2022-08-17T16:49:34.453Z,81.21
2022-08-17T16:52:03.921Z,81.21
2022-08-17T16:54:30.396Z,81.67
2022-08-17T16:56:56.875Z,82.03
2022-08-17T16:59:31.029Z,82.13
2022-08-17T17:02:11.237Z,82.17
2022-08-17T17:04:44.031Z,82.08
2022-08-17T17:07:38.708Z,81.64
2022-08-17T17:10:09.803Z,81.73
2022-08-17T17:13:03.840Z,81.90
2022-08-17T17:15:31.418Z,81.98
2022-08-17T17:18:06.179Z,81.86
2022-08-17T17:20:47.548Z,82.06
2022-08-17T17:23:37.707Z,81.82
2022-08-17T17:26:36.775Z,81.46
2022-08-17T17:29:20.096Z,81.67
2022-08-17T17:32:17.290Z,81.59
2022-08-17T17:34:50.541Z,81.29
2022-08-17T17:37:23.208Z,81.64
2022-08-17T17:39:57.540Z,81.82
2022-08-17T17:42:28.838Z,81.69
2022-08-17T17:45:10.690Z,81.92
2022-08-17T17:47:37.363Z,82.02
2022-08-17T17:50:07.312Z,82.37
2022-08-17T17:53:03.962Z,82.26
2022-08-17T17:55:55.209Z,82.43
2022-08-17T17:58:51.680Z,82.55
2022-08-17T18:01:44.714Z,81.97
2022-08-17T18:04:23.685Z,81.99
2022-08-17T18:07:12.181Z,81.97
2022-08-17T18:10:35.796Z,82.46
2022-08-17T18:13:27.313Z,82.59
2022-08-17T18:15:55.882Z,82.55
2022-08-17T18:18:39.527Z,82.79
2022-08-17T18:21:18.740Z,82.90
2022-08-17T18:23:53.020Z,82.98
2022-08-17T18:26:49.449Z,83.25
2022-08-17T18:29:24.739Z,83.17
2022-08-17T18:32:18.554Z,83.15
2022-08-17T18:34:48.536Z,83.58
2022-08-17T18:37:31.628Z,83.33
2022-08-17T18:39:58.057Z,83.32
2022-08-17T18:42:27.456Z,83.27
2022-08-17T18:44:55.452Z,83.26
2022-08-17T18:47:28.565Z,83.62
2022-08-17T18:49:58.262Z,84.03
2022-08-17T18:52:32.956Z,83.69
2022-08-17T18:55:09.125Z,83.86
2022-08-17T18:57:39.559Z,83.44
2022-08-17T19:00:17.590Z,83.70
2022-08-17T19:02:52.101Z,83.69
2022-08-17T19:05:40.259Z,83.75
2022-08-17T19:08:28.505Z,83.33
2022-08-17T19:11:02.502Z,83.56
2022-08-17T19:13:28.970Z,83.22
2022-08-17T19:16:12.259Z,83.51
2022-08-17T19:18:54.230Z,83.24
2022-08-17T19:21:44.981Z,83.23
2022-08-17T19:24:19.788Z,82.95
2022-08-17T19:27:13.485Z,83.22
2022-08-17T19:29:56.617Z,83.03
2022-08-17T19:32:27.001Z,83.26
2022-08-17T19:34:54.964Z,83.07
2022-08-17T19:37:21.530Z,83.07
2022-08-17T19:40:24.447Z,83.56
2022-08-17T19:43:13.235Z,83.49
2022-08-17T19:45:58.255Z,83.49
2022-08-17T19:48:56.189Z,83.52
2022-08-17T19:51:34.459Z,83.85
2022-08-17T19:54:15.012Z,83.82
2022-08-17T19:56:49.480Z,83.67
2022-08-17T19:59:21.833Z,83.86
2022-08-17T20:02:00.958Z,84.31
2022-08-17T20:04:32.511Z,84.52
2022-08-17T20:07:54.334Z,84.36
2022-08-17T20:10:29.748Z,84.64
2022-08-17T20:13:07.519Z,84.93
2022-08-17T20:15:38.154Z,84.66
2022-08-17T20:18:13.592Z,84.53
2022-08-17T20:21:05.395Z,84.45
2022-08-17T20:23:37.776Z,84.16
2022-08-17T20:26:17.117Z,84.70
2022-08-17T20:29:08.651Z,84.58
2022-08-17T20:32:06.026Z,84.58
2022-08-17T20:34:39.515Z,84.60
2022-08-17T20:37:15.105Z,84.40
2022-08-17T20:40:08.007Z,84.33
2022-08-17T20:42:36.330Z,84.20
2022-08-17T20:45:26.192Z,84.41
2022-08-17T20:48:22.184Z,84.26
2022-08-17T20:50:51.356Z,84.50
2022-08-17T20:53:53.288Z,84.62
2022-08-17T20:56:39.835Z,84.69
2022-08-17T20:59:30.630Z,84.80
2022-08-17T21:02:12.399Z,84.64
2022-08-17T21:05:00.103Z,84.58
2022-08-17T21:07:42.747Z,84.62
2022-08-17T21:10:13.814Z,84.37
2022-08-17T21:12:50.032Z,84.37
2022-08-17T21:15:43.474Z,84.26
2022-08-17T21:18:28.362Z,84.39
2022-08-17T21:21:15.463Z,84.83
2022-08-17T21:23:59.851Z,84.61
2022-08-17T21:27:04.453Z,84.76
2022-08-17T21:29:33.982Z,84.57
2022-08-17T21:32:06.549Z,84.64
2022-08-17T21:34:43.958Z,84.83
2022-08-17T21:37:22.392Z,84.67
2022-08-17T21:39:54.659Z,84.89
2022-08-17T21:42:29.520Z,84.97
2022-08-17T21:45:30.545Z,84.76
2022-08-17T21:48:21.533Z,85.09
2022-08-17T21:51:10.441Z,84.74
2022-08-17T21:53:44.630Z,84.56
2022-08-17T21:56:19.862Z,84.71
2022-08-17T21:58:54.450Z,84.79
2022-08-17T22:01:25.832Z,85.15
2022-08-17T22:04:11.866Z,84.87
2022-08-17T22:06:52.389Z,84.90
2022-08-17T22:09:35.132Z,84.89
2022-08-17T22:12:13.481Z,84.48
2022-08-17T22:14:53.425Z,84.52
2022-08-17T22:17:34.295Z,84.21
2022-08-17T22:20:11.997Z,84.50
2022-08-17T22:23:17.011Z,84.65
2022-08-17T22:26:06.072Z,84.58
2022-08-17T22:28:45.465Z,84.75
2022-08-17T22:31:15.461Z,84.54
2022-08-17T22:33:44.468Z,84.43
2022-08-17T22:36:25.002Z,84.47
2022-08-17T22:39:10.652Z,84.74
2022-08-17T22:41:37.063Z,84.75
2022-08-17T22:44:27.822Z,84.72
2022-08-17T22:47:13.305Z,84.78
2022-08-17T22:49:53.153Z,84.88
2022-08-17T22:52:32.713Z,85.01
2022-08-17T22:55:33.297Z,84.98
2022-08-17T22:58:19.160Z,85.01
2022-08-17T23:00:49.070Z,85.18
2022-08-17T23:03:25.207Z,85.26
2022-08-17T23:06:08.008Z,85.30
2022-08-17T23:08:43.501Z,85.20
2022-08-17T23:11:09.971Z,85.48
2022-08-17T23:13:38.576Z,85.41
2022-08-17T23:16:06.842Z,85.60
2022-08-17T23:18:33.516Z,85.38
2022-08-17T23:21:00.075Z,85.23
2022-08-17T23:23:26.536Z,85.47
2022-08-17T23:25:54.339Z,85.42
2022-08-17T23:28:21.405Z,85.18
2022-08-17T23:30:48.455Z,85.35
2022-08-17T23:33:30.074Z,85.42
2022-08-17T23:35:58.812Z,85.34
2022-08-17T23:38:27.064Z,85.25
2022-08-17T23:40:54.535Z,85.24
2022-08-17T23:43:23.894Z,85.20
2022-08-17T23:45:53.881Z,85.31
2022-08-17T23:48:36.314Z,85.20
2022-08-17T23:51:09.820Z,85.37
2022-08-17T23:53:40.186Z,85.56
2022-08-17T23:56:10.410Z,85.73
2022-08-17T23:58:38.956Z,85.46
